createdAt,value
2022-12-01T00:28:40.684Z,36.00
2022-12-01T00:59:02.909Z,28.50
2022-12-01T01:14:08.623Z,27.10
2022-12-01T01:29:12.940Z,22.30
2022-12-01T01:44:57.350Z,25.20
2022-12-01T02:00:22.193Z,34.40
2022-12-01T02:15:55.059Z,32.70
2022-12-01T02:46:29.999Z,34.90
2022-12-01T03:16:51.577Z,26.20
2022-12-01T03:32:03.301Z,27.00
2022-12-01T03:47:30.342Z,26.90
2022-12-01T04:02:33.391Z,32.60
2022-12-01T04:17:36.959Z,27.60
2022-12-01T04:32:42.376Z,25.90
2022-12-01T04:47:59.371Z,29.90
2022-12-01T05:03:01.813Z,29.00
2022-12-01T05:18:05.693Z,23.30
2022-12-01T05:33:08.578Z,29.60
2022-12-01T05:48:11.133Z,28.00
2022-12-01T06:03:14.532Z,22.00
2022-12-01T06:18:17.513Z,33.50
2022-12-01T06:33:20.282Z,30.40
2022-12-01T06:48:22.986Z,31.10
2022-12-01T07:03:26.933Z,31.00
2022-12-01T07:18:44.729Z,38.70
2022-12-01T07:33:47.328Z,38.30
2022-12-01T07:49:08.254Z,31.20
2022-12-01T08:04:25.656Z,31.20
2022-12-01T08:19:28.963Z,31.20
2022-12-01T08:34:53.091Z,30.40
2022-12-01T08:49:56.796Z,25.10
2022-12-01T09:04:59.512Z,32.10
2022-12-01T09:20:16.856Z,22.20
2022-12-01T09:35:23.205Z,37.70
2022-12-01T09:50:29.466Z,24.40
2022-12-01T10:06:26.157Z,33.40
2022-12-01T10:22:02.172Z,30.80
2022-12-01T10:37:09.024Z,28.50
2022-12-01T10:52:32.916Z,32.70
2022-12-01T11:07:45.874Z,30.50
2022-12-01T11:22:48.284Z,27.40
2022-12-01T11:38:27.710Z,28.90
2022-12-01T11:53:30.376Z,29.10
2022-12-01T12:09:22.265Z,26.90
2022-12-01T12:25:15.966Z,31.90
2022-12-01T12:41:21.854Z,31.70
2022-12-01T12:56:30.404Z,32.00
2022-12-01T13:12:04.869Z,32.50
2022-12-01T13:27:10.573Z,33.70
2022-12-01T13:42:26.639Z,36.50
2022-12-01T13:57:33.740Z,33.00
2022-12-01T14:12:37.449Z,37.80
2022-12-01T14:27:43.407Z,35.90
2022-12-01T14:43:11.774Z,31.80
2022-12-01T14:58:29.169Z,18.90
2022-12-01T15:13:51.083Z,20.30
2022-12-01T15:29:16.135Z,16.90
2022-12-01T15:44:36.213Z,18.70
2022-12-01T15:59:44.061Z,16.80
2022-12-01T16:30:39.561Z,18.00
2022-12-01T16:45:43.970Z,17.80
2022-12-01T17:01:01.312Z,18.90
2022-12-01T17:16:10.752Z,15.90
2022-12-01T17:31:15.890Z,20.60
2022-12-01T17:46:18.910Z,17.80
2022-12-01T18:01:25.425Z,17.20
2022-12-01T18:16:32.950Z,15.50
2022-12-01T18:31:35.787Z,19.90
2022-12-01T18:46:39.185Z,15.20
2022-12-01T19:01:48.073Z,14.80
2022-12-01T19:17:00.378Z,18.10
2022-12-01T19:32:14.225Z,14.90
2022-12-01T19:47:22.320Z,14.10
2022-12-01T20:02:34.338Z,15.90
2022-12-01T20:17:38.688Z,17.00
2022-12-01T20:32:41.743Z,17.00
2022-12-01T20:47:44.761Z,13.10
2022-12-01T21:02:50.458Z,16.20
2022-12-01T21:18:23.962Z,15.90
2022-12-01T21:33:40.660Z,7.40
2022-12-01T21:48:48.415Z,16.90
2022-12-01T22:03:51.172Z,18.50
2022-12-01T22:18:58.283Z,24.90
2022-12-01T22:34:03.555Z,19.70
2022-12-01T22:49:06.236Z,21.50
2022-12-01T23:04:28.646Z,18.80
2022-12-01T23:19:34.238Z,14.30
2022-12-01T23:34:37.416Z,25.60
2022-12-01T23:49:40.429Z,19.60
